createdAt,value
2018-01-27T00:00:24.408Z,25.83
2018-01-27T00:02:52.759Z,27.20
2018-01-27T00:05:20.323Z,35.00
2018-01-27T00:07:47.831Z,43.05
2018-01-27T00:10:15.389Z,33.67
2018-01-27T00:12:42.932Z,26.75
2018-01-27T00:15:10.467Z,27.25
2018-01-27T00:17:38.431Z,33.03
2018-01-27T00:20:06.734Z,30.52
2018-01-27T00:22:45.956Z,37.60
2018-01-27T00:25:13.491Z,46.08
2018-01-27T00:27:41.078Z,41.10
2018-01-27T00:30:09.362Z,34.97
2018-01-27T00:32:37.769Z,32.13
2018-01-27T00:35:05.339Z,32.60
2018-01-27T00:37:32.836Z,31.45
2018-01-27T00:40:00.371Z,31.67
2018-01-27T00:42:27.904Z,28.70
2018-01-27T00:44:56.198Z,34.40
2018-01-27T00:47:24.559Z,29.42
2018-01-27T00:49:52.857Z,27.35
2018-01-27T00:52:21.261Z,32.15
2018-01-27T00:54:48.777Z,26.55
2018-01-27T00:57:16.311Z,30.75
2018-01-27T00:59:43.854Z,37.50
2018-01-27T01:02:11.389Z,33.10
2018-01-27T01:04:39.681Z,34.22
2018-01-27T01:07:07.971Z,34.78
2018-01-27T01:09:36.259Z,33.55
2018-01-27T01:12:03.817Z,33.53
2018-01-27T01:14:31.348Z,31.52
2018-01-27T01:16:58.964Z,38.85
2018-01-27T01:19:26.477Z,40.42
2018-01-27T01:21:54.062Z,31.30
2018-01-27T01:24:22.376Z,32.55
2018-01-27T01:26:49.967Z,29.60
2018-01-27T01:29:17.612Z,35.22
2018-01-27T01:31:45.203Z,30.02
2018-01-27T01:34:13.491Z,30.20
2018-01-27T01:36:41.068Z,33.55
2018-01-27T01:39:09.498Z,34.17
2018-01-27T01:41:37.023Z,31.08
2018-01-27T01:44:10.268Z,39.30
2018-01-27T01:46:37.773Z,34.90
2018-01-27T01:49:17.979Z,31.98
2018-01-27T01:51:45.501Z,39.55
2018-01-27T01:54:13.040Z,45.85
2018-01-27T01:56:40.581Z,56.70
2018-01-27T01:59:08.116Z,42.17
2018-01-27T02:01:36.417Z,37.80
2018-01-27T02:04:03.937Z,37.67
2018-01-27T02:06:31.461Z,42.28
2018-01-27T02:08:58.992Z,56.35
2018-01-27T02:11:26.511Z,49.58
2018-01-27T02:13:54.081Z,65.57
2018-01-27T02:16:21.636Z,61.67
2018-01-27T02:18:49.197Z,73.53
2018-01-27T02:21:16.747Z,69.95
2018-01-27T02:23:44.252Z,62.22
2018-01-27T02:26:11.793Z,44.83
2018-01-27T02:28:39.320Z,47.22
2018-01-27T02:31:08.922Z,44.22
2018-01-27T02:33:37.041Z,35.05
2018-01-27T02:36:04.661Z,32.17
2018-01-27T02:38:32.192Z,30.73
2018-01-27T02:40:59.727Z,35.88
2018-01-27T02:43:27.248Z,32.50
2018-01-27T02:45:54.788Z,35.40
2018-01-27T02:48:22.653Z,30.23
2018-01-27T02:50:51.733Z,32.50
2018-01-27T02:53:19.254Z,33.05
2018-01-27T02:55:46.823Z,38.13
2018-01-27T02:58:15.145Z,34.88
2018-01-27T03:00:42.664Z,30.90
2018-01-27T03:03:10.183Z,32.35
2018-01-27T03:05:37.717Z,32.67
2018-01-27T03:08:06.072Z,31.65
2018-01-27T03:10:33.618Z,28.30
2018-01-27T03:13:02.891Z,36.42
2018-01-27T03:15:30.407Z,26.77
2018-01-27T03:17:58.128Z,36.72
2018-01-27T03:20:25.660Z,36.45
2018-01-27T03:22:53.972Z,31.42
2018-01-27T03:25:21.495Z,38.15
2018-01-27T03:27:49.019Z,29.80
2018-01-27T03:30:16.538Z,53.47
2018-01-27T03:32:44.835Z,106.28
2018-01-27T03:35:13.171Z,37.47
2018-01-27T03:37:40.671Z,46.55
2018-01-27T03:40:08.968Z,44.95
2018-01-27T03:42:36.626Z,40.33
2018-01-27T03:45:05.334Z,38.83
2018-01-27T03:47:32.899Z,32.03
2018-01-27T03:50:01.921Z,32.65
2018-01-27T03:52:29.454Z,32.33
2018-01-27T03:54:56.988Z,32.65
2018-01-27T03:57:24.512Z,43.00
2018-01-27T03:59:52.056Z,47.28
2018-01-27T04:02:19.585Z,44.30
2018-01-27T04:04:47.107Z,49.25
2018-01-27T04:07:14.620Z,46.72
2018-01-27T04:09:42.913Z,38.25
2018-01-27T04:12:11.531Z,39.80
2018-01-27T04:14:39.058Z,43.40
2018-01-27T04:17:06.582Z,44.10
2018-01-27T04:19:34.110Z,51.10
2018-01-27T04:22:01.643Z,46.90
2018-01-27T04:24:29.434Z,51.53
2018-01-27T04:26:57.723Z,49.40
2018-01-27T04:29:25.252Z,42.72
2018-01-27T04:31:52.784Z,37.90
2018-01-27T04:34:21.381Z,38.40
2018-01-27T04:36:48.929Z,39.33
2018-01-27T04:39:16.523Z,44.92
2018-01-27T04:41:44.879Z,37.40
2018-01-27T04:44:12.412Z,35.63
2018-01-27T04:46:40.691Z,40.72
2018-01-27T04:49:09.099Z,37.75
2018-01-27T04:51:36.724Z,31.23
2018-01-27T04:54:04.273Z,34.15
2018-01-27T04:56:31.879Z,36.13
2018-01-27T04:59:00.196Z,32.53
2018-01-27T05:01:27.848Z,33.20
2018-01-27T05:03:55.343Z,32.78
2018-01-27T05:06:22.872Z,31.23
2018-01-27T05:08:50.482Z,34.63
2018-01-27T05:11:18.025Z,27.30
2018-01-27T05:13:45.622Z,32.92
2018-01-27T05:16:13.144Z,40.33
2018-01-27T05:18:40.679Z,35.63
2018-01-27T05:21:08.984Z,32.80
2018-01-27T05:23:36.516Z,27.83
2018-01-27T05:26:04.383Z,26.70
2018-01-27T05:28:31.919Z,23.42
2018-01-27T05:30:59.443Z,28.77
2018-01-27T05:33:26.969Z,27.23
2018-01-27T05:35:54.505Z,29.98
2018-01-27T05:38:22.320Z,27.98
2018-01-27T05:40:50.623Z,30.52
2018-01-27T05:43:18.179Z,24.52
2018-01-27T05:45:46.486Z,23.27
2018-01-27T05:48:14.030Z,29.45
2018-01-27T05:50:42.344Z,79.72
2018-01-27T05:53:09.910Z,115.10
2018-01-27T05:55:38.343Z,342.98
2018-01-27T05:58:05.883Z,147.40
2018-01-27T06:00:33.412Z,146.18
2018-01-27T06:03:00.959Z,113.00
2018-01-27T06:05:29.259Z,183.27
2018-01-27T06:07:56.780Z,56.55
2018-01-27T06:10:24.407Z,154.38
2018-01-27T06:12:51.941Z,147.75
2018-01-27T06:15:19.528Z,264.63
2018-01-27T06:17:47.044Z,202.98
2018-01-27T06:20:15.001Z,164.45
2018-01-27T06:22:42.628Z,380.40
2018-01-27T06:25:10.208Z,240.30
2018-01-27T06:27:37.761Z,204.98
2018-01-27T06:30:05.327Z,122.70
2018-01-27T06:32:32.859Z,79.32
2018-01-27T06:35:00.404Z,141.82
2018-01-27T06:37:27.950Z,241.98
2018-01-27T06:39:55.456Z,254.87
2018-01-27T06:42:23.747Z,305.58
2018-01-27T06:44:52.048Z,281.38
2018-01-27T06:47:19.576Z,229.40
2018-01-27T06:49:47.937Z,135.88
2018-01-27T06:52:15.460Z,254.70
2018-01-27T06:54:42.988Z,228.93
2018-01-27T06:57:10.587Z,480.75
2018-01-27T06:59:38.120Z,378.95
2018-01-27T07:02:05.655Z,283.95
2018-01-27T07:04:33.188Z,200.82
2018-01-27T07:07:00.730Z,144.40
2018-01-27T07:09:29.032Z,210.80
2018-01-27T07:11:56.593Z,353.92
2018-01-27T07:14:24.124Z,357.05
2018-01-27T07:16:51.650Z,196.60
2018-01-27T07:19:19.191Z,133.02
2018-01-27T07:21:46.717Z,166.18
2018-01-27T07:24:14.268Z,153.12
2018-01-27T07:26:42.557Z,141.25
2018-01-27T07:29:10.084Z,223.15
2018-01-27T07:31:37.604Z,172.98
2018-01-27T07:34:05.905Z,163.87
2018-01-27T07:36:33.456Z,193.82
2018-01-27T07:39:01.751Z,212.63
2018-01-27T07:41:29.273Z,147.90
2018-01-27T07:43:56.809Z,181.37
2018-01-27T07:46:24.336Z,161.75
2018-01-27T07:48:52.636Z,119.60
2018-01-27T07:51:20.160Z,120.20
2018-01-27T07:53:48.096Z,46.95
2018-01-27T07:56:15.643Z,127.62
2018-01-27T07:58:43.156Z,59.50
2018-01-27T08:01:10.727Z,91.18
2018-01-27T08:03:38.339Z,166.32
2018-01-27T08:06:05.876Z,128.93
2018-01-27T08:08:34.245Z,251.37
2018-01-27T08:11:01.753Z,242.75
2018-01-27T08:13:29.289Z,313.62
2018-01-27T08:15:57.590Z,117.50
2018-01-27T08:18:25.885Z,138.52
2018-01-27T08:20:53.415Z,178.68
2018-01-27T08:23:21.714Z,237.27
2018-01-27T08:25:50.034Z,162.60
2018-01-27T08:28:17.577Z,282.40
2018-01-27T08:30:45.268Z,285.58
2018-01-27T08:33:12.798Z,321.50
2018-01-27T08:35:42.012Z,184.82
2018-01-27T08:38:09.590Z,124.25
2018-01-27T08:40:37.235Z,189.25
2018-01-27T08:43:04.773Z,257.87
2018-01-27T08:45:32.380Z,477.40
2018-01-27T08:47:59.904Z,573.37
2018-01-27T08:50:27.529Z,597.13
2018-01-27T08:52:55.091Z,448.27
2018-01-27T08:55:22.625Z,421.95
2018-01-27T08:57:50.189Z,576.15
2018-01-27T09:00:17.736Z,261.77
2018-01-27T09:02:46.128Z,453.17
2018-01-27T09:05:14.431Z,348.60
2018-01-27T09:07:41.942Z,315.55
2018-01-27T09:10:09.496Z,389.30
2018-01-27T09:12:37.134Z,193.93
2018-01-27T09:15:04.741Z,232.45
2018-01-27T09:17:33.238Z,258.98
2018-01-27T09:20:00.807Z,403.88
2018-01-27T09:22:28.338Z,428.02
2018-01-27T09:24:55.872Z,273.58
2018-01-27T09:27:23.411Z,147.68
2018-01-27T09:29:50.952Z,261.87
2018-01-27T09:32:18.476Z,246.77
2018-01-27T09:34:46.633Z,600.00
2018-01-27T09:37:14.935Z,143.52
2018-01-27T09:39:42.460Z,111.18
2018-01-27T09:42:09.993Z,213.40
2018-01-27T09:44:38.300Z,303.02
2018-01-27T09:47:05.880Z,204.15
2018-01-27T09:49:33.401Z,188.25
2018-01-27T09:52:00.923Z,156.35
2018-01-27T09:54:29.228Z,340.50
2018-01-27T09:56:56.771Z,388.30
2018-01-27T09:59:25.112Z,339.33
2018-01-27T10:01:52.644Z,272.33
2018-01-27T10:04:20.180Z,228.52
2018-01-27T10:06:48.501Z,174.48
2018-01-27T10:09:16.072Z,307.17
2018-01-27T10:11:43.620Z,259.27
2018-01-27T10:14:11.155Z,407.50
2018-01-27T10:16:38.806Z,330.10
2018-01-27T10:19:06.339Z,388.50
2018-01-27T10:21:33.873Z,182.20
2018-01-27T10:24:01.416Z,321.92
2018-01-27T10:26:29.933Z,139.07
2018-01-27T10:28:57.453Z,262.88
2018-01-27T10:31:24.996Z,141.62
2018-01-27T10:33:52.596Z,117.43
2018-01-27T10:36:20.998Z,197.73
2018-01-27T10:38:49.288Z,261.75
2018-01-27T10:41:16.820Z,157.80
2018-01-27T10:43:44.347Z,171.15
2018-01-27T10:46:11.889Z,102.32
2018-01-27T10:48:39.485Z,165.55
2018-01-27T10:51:07.737Z,232.52
2018-01-27T10:53:35.259Z,168.75
2018-01-27T10:56:03.548Z,151.37
2018-01-27T10:58:31.877Z,124.47
2018-01-27T11:00:59.444Z,101.10
2018-01-27T11:03:26.994Z,119.45
2018-01-27T11:05:54.523Z,105.70
2018-01-27T11:08:22.831Z,120.03
2018-01-27T11:10:50.376Z,167.80
2018-01-27T11:13:18.704Z,167.52
2018-01-27T11:15:46.259Z,121.32
2018-01-27T11:18:13.776Z,60.00
2018-01-27T11:20:41.351Z,33.17
2018-01-27T11:23:10.428Z,27.87
2018-01-27T11:25:38.106Z,25.42
2018-01-27T11:28:05.648Z,20.15
2018-01-27T11:30:34.755Z,28.05
2018-01-27T11:33:02.342Z,26.37
2018-01-27T11:35:29.963Z,82.55
2018-01-27T11:37:57.525Z,55.05
2018-01-27T11:40:25.140Z,31.63
2018-01-27T11:42:52.750Z,60.13
2018-01-27T11:45:20.277Z,71.50
2018-01-27T11:47:47.816Z,36.80
2018-01-27T11:50:15.379Z,31.75
2018-01-27T11:52:42.929Z,40.25
2018-01-27T11:55:10.466Z,50.78
2018-01-27T11:57:38.016Z,26.08
2018-01-27T12:00:06.311Z,33.60
2018-01-27T12:02:33.859Z,47.62
2018-01-27T12:05:02.172Z,43.90
2018-01-27T12:07:29.705Z,53.65
2018-01-27T12:09:58.001Z,41.90
2018-01-27T12:12:26.318Z,61.87
2018-01-27T12:14:53.872Z,33.87
2018-01-27T12:17:21.392Z,99.97
2018-01-27T12:19:48.925Z,27.93
2018-01-27T12:22:16.465Z,17.27
2018-01-27T12:24:44.217Z,34.83
2018-01-27T12:27:12.500Z,48.13
2018-01-27T12:29:40.041Z,30.80
2018-01-27T12:32:07.584Z,39.97
2018-01-27T12:34:35.174Z,21.10
2018-01-27T12:37:02.738Z,20.03
2018-01-27T12:39:30.256Z,21.13
2018-01-27T12:41:57.907Z,22.97
2018-01-27T12:44:25.439Z,19.60
2018-01-27T12:46:53.755Z,70.67
2018-01-27T12:49:21.305Z,130.57
2018-01-27T12:51:49.597Z,57.43
2018-01-27T12:54:17.252Z,193.77
2018-01-27T12:56:45.624Z,64.87
2018-01-27T12:59:13.946Z,71.67
2018-01-27T13:01:41.496Z,77.67
2018-01-27T13:04:09.008Z,83.43
2018-01-27T13:06:36.549Z,133.17
2018-01-27T13:09:04.069Z,40.80
2018-01-27T13:11:32.387Z,28.63
2018-01-27T13:14:00.048Z,131.40
2018-01-27T13:16:27.560Z,54.87
2018-01-27T13:18:55.092Z,56.87
2018-01-27T13:21:22.629Z,182.60
2018-01-27T13:23:50.272Z,33.87
2018-01-27T13:26:17.825Z,18.30
2018-01-27T13:28:45.365Z,25.50
2018-01-27T13:31:12.894Z,24.50
2018-01-27T13:33:40.440Z,26.43
2018-01-27T13:36:08.777Z,28.53
2018-01-27T13:38:36.309Z,19.73
2018-01-27T13:41:04.504Z,22.43
2018-01-27T13:43:32.059Z,44.80
2018-01-27T13:45:59.638Z,34.83
2018-01-27T13:48:27.195Z,38.43
2018-01-27T13:50:54.723Z,58.40
2018-01-27T13:53:23.028Z,24.90
2018-01-27T13:55:50.706Z,34.07
2018-01-27T13:58:18.245Z,23.50
2018-01-27T14:00:46.578Z,30.10
2018-01-27T14:03:14.108Z,39.70
2018-01-27T14:05:41.713Z,30.43
2018-01-27T14:08:09.352Z,35.33
2018-01-27T14:10:37.673Z,28.00
2018-01-27T14:13:05.238Z,31.30
2018-01-27T14:15:33.656Z,31.10
2018-01-27T14:18:01.950Z,33.20
2018-01-27T14:20:29.488Z,34.70
2018-01-27T14:22:57.141Z,32.93
2018-01-27T14:25:24.696Z,34.70
2018-01-27T14:27:52.997Z,37.57
2018-01-27T14:30:20.630Z,42.10
2018-01-27T14:32:48.192Z,32.53
2018-01-27T14:35:15.793Z,37.67
2018-01-27T14:37:43.416Z,33.33
2018-01-27T14:40:10.973Z,34.42
2018-01-27T14:42:38.553Z,34.85
2018-01-27T14:45:06.102Z,33.33
2018-01-27T14:47:33.643Z,32.60
2018-01-27T14:50:01.970Z,35.90
2018-01-27T14:52:29.634Z,35.97
2018-01-27T14:54:57.192Z,33.85
2018-01-27T14:57:24.725Z,36.50
2018-01-27T14:59:53.187Z,37.33
2018-01-27T15:02:20.732Z,35.30
2018-01-27T15:04:48.273Z,60.97
2018-01-27T15:07:15.840Z,529.65
2018-01-27T15:09:43.414Z,46.40
2018-01-27T15:12:10.977Z,40.47
2018-01-27T15:14:38.522Z,44.20
2018-01-27T15:17:06.068Z,46.70
2018-01-27T15:19:34.425Z,43.63
2018-01-27T15:22:01.964Z,47.25
2018-01-27T15:24:29.494Z,53.97
2018-01-27T15:26:57.075Z,52.83
2018-01-27T15:29:24.613Z,55.38
2018-01-27T15:31:52.916Z,48.87
2018-01-27T15:34:20.491Z,48.03
2018-01-27T15:36:48.034Z,44.17
2018-01-27T15:39:16.342Z,41.60
2018-01-27T15:41:44.385Z,48.13
2018-01-27T15:44:12.689Z,43.10
2018-01-27T15:46:40.255Z,47.17
2018-01-27T15:49:08.000Z,48.47
2018-01-27T15:51:36.994Z,48.08
2018-01-27T15:54:04.604Z,47.92
2018-01-27T15:56:32.133Z,50.70
2018-01-27T15:59:00.481Z,48.13
2018-01-27T16:01:28.024Z,48.10
2018-01-27T16:03:55.576Z,54.90
2018-01-27T16:06:23.143Z,53.35
2018-01-27T16:11:31.801Z,44.80
2018-01-27T16:14:00.587Z,45.38
2018-01-27T16:16:28.113Z,52.70
2018-01-27T16:18:55.688Z,48.47
2018-01-27T16:21:23.220Z,54.50
2018-01-27T16:23:51.212Z,53.15
2018-01-27T16:26:18.740Z,47.88
2018-01-27T16:28:46.277Z,48.55
2018-01-27T16:31:13.815Z,52.42
2018-01-27T16:33:42.129Z,52.95
2018-01-27T16:36:09.693Z,52.22
2018-01-27T16:38:37.376Z,50.60
2018-01-27T16:41:04.910Z,46.50
2018-01-27T16:43:32.935Z,45.63
2018-01-27T16:46:00.705Z,44.65
2018-01-27T16:48:28.267Z,49.22
2018-01-27T16:50:55.821Z,46.05
2018-01-27T16:53:23.979Z,44.95
2018-01-27T16:55:51.543Z,45.20
2018-01-27T16:58:19.109Z,43.50
2018-01-27T17:00:46.713Z,46.13
2018-01-27T17:03:14.253Z,52.35
2018-01-27T17:05:41.777Z,51.28
2018-01-27T17:08:09.324Z,50.85
2018-01-27T17:10:36.872Z,45.17
2018-01-27T17:13:04.427Z,45.47
2018-01-27T17:15:31.981Z,45.22
2018-01-27T17:17:59.540Z,41.65
2018-01-27T17:20:27.183Z,39.38
2018-01-27T17:22:55.697Z,46.30
2018-01-27T17:25:23.260Z,42.67
2018-01-27T17:27:50.803Z,44.47
2018-01-27T17:30:18.393Z,47.65
2018-01-27T17:32:46.054Z,45.12
2018-01-27T17:35:13.585Z,51.83
2018-01-27T17:37:41.897Z,48.78
2018-01-27T17:40:09.432Z,50.15
2018-01-27T17:42:37.769Z,131.27
2018-01-27T17:45:05.307Z,356.87
2018-01-27T17:47:32.839Z,77.05
2018-01-27T17:50:01.164Z,46.17
2018-01-27T17:52:28.717Z,38.67
2018-01-27T17:54:56.340Z,37.28
2018-01-27T17:57:23.872Z,42.58
2018-01-27T17:59:51.409Z,46.70
2018-01-27T18:02:18.972Z,46.33
2018-01-27T18:04:46.515Z,56.30
2018-01-27T18:07:14.831Z,36.70
2018-01-27T18:09:42.359Z,38.83
2018-01-27T18:12:10.664Z,43.28
2018-01-27T18:14:38.218Z,49.75
2018-01-27T18:17:06.532Z,41.20
2018-01-27T18:19:34.056Z,40.55
2018-01-27T18:22:02.365Z,45.00
2018-01-27T18:24:29.890Z,47.15
2018-01-27T18:26:57.458Z,46.25
2018-01-27T18:29:24.989Z,49.33
2018-01-27T18:31:52.966Z,51.83
2018-01-27T18:34:21.430Z,42.65
2018-01-27T18:36:48.956Z,43.08
2018-01-27T18:39:16.561Z,42.62
2018-01-27T18:41:45.008Z,64.68
2018-01-27T18:44:13.333Z,158.30
2018-01-27T18:46:42.063Z,40.88
2018-01-27T18:49:10.381Z,38.13
2018-01-27T18:51:38.690Z,34.72
2018-01-27T18:54:06.341Z,39.08
2018-01-27T18:56:33.872Z,37.10
2018-01-27T18:59:01.427Z,37.28
2018-01-27T19:01:28.964Z,37.92
2018-01-27T19:03:56.519Z,43.15
2018-01-27T19:06:24.047Z,42.92
2018-01-27T19:08:52.346Z,40.03
2018-01-27T19:11:19.912Z,40.35
2018-01-27T19:13:47.471Z,48.83
2018-01-27T19:16:15.780Z,45.28
2018-01-27T19:18:44.199Z,45.22
2018-01-27T19:21:11.715Z,48.58
2018-01-27T19:23:39.261Z,50.22
2018-01-27T19:26:07.572Z,55.83
2018-01-27T19:28:35.074Z,47.90
2018-01-27T19:31:02.605Z,50.42
2018-01-27T19:33:30.142Z,46.90
2018-01-27T19:35:58.493Z,52.47
2018-01-27T19:38:26.032Z,49.22
2018-01-27T19:40:53.661Z,51.50
2018-01-27T19:43:22.704Z,50.65
2018-01-27T19:45:50.400Z,56.50
2018-01-27T19:48:18.105Z,56.05
2018-01-27T19:50:46.425Z,52.67
2018-01-27T19:53:13.966Z,48.38
2018-01-27T19:55:41.558Z,48.10
2018-01-27T19:58:09.866Z,41.85
2018-01-27T20:00:37.437Z,38.63
2018-01-27T20:03:05.046Z,41.03
2018-01-27T20:05:32.668Z,37.65
2018-01-27T20:08:00.289Z,35.78
2018-01-27T20:10:28.725Z,39.58
2018-01-27T20:12:56.304Z,37.50
2018-01-27T20:15:24.615Z,35.65
2018-01-27T20:17:52.230Z,37.60
2018-01-27T20:20:19.818Z,34.33
2018-01-27T20:22:48.120Z,31.70
2018-01-27T20:25:15.687Z,23.05
2018-01-27T20:27:43.234Z,17.42
2018-01-27T20:30:12.186Z,16.48
2018-01-27T20:32:40.493Z,18.52
2018-01-27T20:35:08.051Z,65.37
2018-01-27T20:37:35.629Z,132.65
2018-01-27T20:40:03.176Z,63.50
2018-01-27T20:42:30.796Z,23.38
2018-01-27T20:44:58.326Z,26.75
2018-01-27T20:47:25.862Z,32.35
2018-01-27T20:52:27.287Z,28.95
2018-01-27T20:54:55.599Z,31.25
2018-01-27T20:57:23.154Z,34.25
2018-01-27T20:59:50.689Z,43.78
2018-01-27T21:02:19.005Z,50.28
2018-01-27T21:04:46.561Z,54.17
2018-01-27T21:07:14.877Z,59.03
2018-01-27T21:09:42.417Z,60.47
2018-01-27T21:12:09.972Z,65.90
2018-01-27T21:14:37.513Z,72.85
2018-01-27T21:17:05.077Z,77.78
2018-01-27T21:19:32.628Z,66.47
2018-01-27T21:22:00.178Z,67.05
2018-01-27T21:24:27.718Z,70.15
2018-01-27T21:26:56.173Z,71.78
2018-01-27T21:29:24.499Z,77.30
2018-01-27T21:31:52.049Z,81.72
2018-01-27T21:34:19.644Z,73.07
2018-01-27T21:36:47.409Z,74.97
2018-01-27T21:39:14.937Z,91.82
2018-01-27T21:41:43.284Z,80.62
2018-01-27T21:44:11.956Z,89.10
2018-01-27T21:46:40.333Z,79.57
2018-01-27T21:49:09.557Z,65.78
2018-01-27T21:51:37.171Z,66.60
2018-01-27T21:54:04.693Z,60.25
2018-01-27T21:56:32.280Z,47.92
2018-01-27T21:59:00.693Z,45.67
2018-01-27T22:01:28.697Z,44.70
2018-01-27T22:03:56.264Z,44.60
2018-01-27T22:06:23.814Z,42.42
2018-01-27T22:08:51.349Z,41.63
2018-01-27T22:11:18.908Z,41.70
2018-01-27T22:13:47.250Z,245.25
2018-01-27T22:16:16.307Z,76.05
2018-01-27T22:18:43.865Z,43.42
2018-01-27T22:21:12.154Z,40.25
2018-01-27T22:23:39.733Z,38.75
2018-01-27T22:26:08.236Z,41.20
2018-01-27T22:28:35.816Z,38.22
2018-01-27T22:31:03.345Z,32.58
2018-01-27T22:33:31.353Z,36.22
2018-01-27T22:35:59.642Z,30.85
2018-01-27T22:38:28.052Z,34.00
2018-01-27T22:40:56.387Z,30.58
2018-01-27T22:43:23.928Z,30.73
2018-01-27T22:45:52.399Z,31.42
2018-01-27T22:48:20.696Z,28.25
2018-01-27T22:50:48.195Z,30.17
2018-01-27T22:53:15.787Z,31.95
2018-01-27T22:55:44.222Z,28.00
2018-01-27T22:58:12.086Z,26.05
2018-01-27T23:00:40.765Z,29.25
2018-01-27T23:03:09.069Z,24.70
2018-01-27T23:05:36.635Z,25.23
2018-01-27T23:08:04.190Z,27.58
2018-01-27T23:10:31.849Z,26.58
2018-01-27T23:12:59.384Z,28.15
2018-01-27T23:15:26.917Z,27.77
2018-01-27T23:17:54.698Z,31.12
2018-01-27T23:20:22.222Z,27.15
2018-01-27T23:22:49.754Z,29.83
2018-01-27T23:25:18.784Z,28.27
2018-01-27T23:27:46.288Z,24.70
2018-01-27T23:30:13.821Z,27.98
2018-01-27T23:32:41.392Z,26.42
2018-01-27T23:35:10.298Z,25.00
2018-01-27T23:37:38.119Z,26.08
2018-01-27T23:40:06.413Z,21.73
2018-01-27T23:42:34.763Z,22.92
2018-01-27T23:45:02.352Z,19.17
2018-01-27T23:47:30.633Z,19.27
2018-01-27T23:49:59.812Z,19.75
2018-01-27T23:52:27.356Z,17.12
2018-01-27T23:54:54.933Z,18.12
2018-01-27T23:57:22.464Z,15.10
2018-01-27T23:59:51.155Z,16.83
